Time;durP1;ratioP1;P1;durP2;ratioP2;P2;SDS_P1;SDS_P2;PMS_P1;PMS_P2;Temp;Humidity;BMP_temperature;BMP_pressure;BME280_temperature;BME280_humidity;BME280_pressure;Samples;Min_cycle;Max_cycle;Signal;HPM_P1;HPM_P2
2023/07/20 00:02:02;;;;;;;31.83;26.13;;;25.90;99.90;;;;;;4921237;29;20028;-91
2023/07/20 00:04:29;;;;;;;31.15;26.38;;;25.70;99.90;;;;;;4921585;29;20040;-92
2023/07/20 00:06:55;;;;;;;28.67;25.83;;;25.80;99.90;;;;;;4905536;29;20469;-91
2023/07/20 00:09:21;;;;;;;30.67;26.30;;;25.80;99.90;;;;;;4905348;29;20059;-91
2023/07/20 00:11:52;;;;;;;30.33;27.20;;;25.70;99.90;;;;;;4905369;29;20156;-93
2023/07/20 00:14:19;;;;;;;29.70;26.48;;;25.70;99.90;;;;;;4905278;29;20160;-92
2023/07/20 00:16:46;;;;;;;29.35;26.25;;;25.70;99.90;;;;;;4909947;29;20031;-92
2023/07/20 00:19:13;;;;;;;30.48;26.08;;;25.70;99.90;;;;;;4920898;29;20063;-90
2023/07/20 00:21:42;;;;;;;29.52;26.45;;;25.70;99.90;;;;;;4909451;29;20028;-93
2023/07/20 00:24:09;;;;;;;29.27;26.42;;;25.70;99.90;;;;;;4916365;29;20051;-90
2023/07/20 00:26:35;;;;;;;30.10;26.95;;;25.70;99.90;;;;;;4916769;29;20035;-91
2023/07/20 00:29:01;;;;;;;29.83;26.73;;;25.70;99.90;;;;;;4944220;28;20050;-90
2023/07/20 00:31:29;;;;;;;29.70;26.52;;;25.70;99.90;;;;;;4959540;28;20037;-92
2023/07/20 00:33:56;;;;;;;28.92;25.80;;;25.70;99.90;;;;;;4956341;29;20043;-92
2023/07/20 00:36:22;;;;;;;32.83;26.75;;;25.70;99.90;;;;;;4940361;29;20046;-93
2023/07/20 00:38:49;;;;;;;29.25;26.20;;;25.60;99.90;;;;;;4962211;28;20122;-92
2023/07/20 00:41:16;;;;;;;29.27;26.20;;;25.60;99.90;;;;;;4959620;28;20090;-91
2023/07/20 00:43:42;;;;;;;27.67;24.83;;;25.70;99.90;;;;;;4943499;28;20046;-90
2023/07/20 00:46:10;;;;;;;28.30;25.52;;;25.80;99.90;;;;;;4959748;28;20042;-91
2023/07/20 00:48:37;;;;;;;27.48;24.98;;;25.70;99.90;;;;;;4959139;28;20050;-91
2023/07/20 00:51:04;;;;;;;28.52;25.65;;;25.80;99.90;;;;;;4956081;29;20101;-92
2023/07/20 00:53:30;;;;;;;26.67;24.15;;;25.90;99.90;;;;;;4955975;29;20063;-91
2023/07/20 00:55:57;;;;;;;28.20;25.23;;;25.90;99.90;;;;;;4950151;28;20047;-91
2023/07/20 00:58:24;;;;;;;27.67;24.98;;;25.80;99.90;;;;;;4959137;28;20488;-91
2023/07/20 01:00:51;;;;;;;27.88;24.95;;;25.60;99.90;;;;;;4943201;28;20034;-92
2023/07/20 01:03:19;;;;;;;35.97;25.27;;;25.60;99.90;;;;;;4956389;28;20042;-92
2023/07/20 01:06:30;;;;;;;29.42;26.35;;;25.50;99.90;;;;;;4956238;29;20035;-95
2023/07/20 01:09:25;;;;;;;28.45;25.58;;;25.50;99.90;;;;;;4869983;29;20161;-91
2023/07/20 01:12:05;;;;;;;29.75;26.65;;;25.50;99.90;;;;;;4883332;29;20040;-93
2023/07/20 01:14:34;;;;;;;29.77;26.65;;;25.50;99.90;;;;;;4882631;29;20123;-93
2023/07/20 01:17:01;;;;;;;30.23;27.27;;;25.50;99.90;;;;;;4882443;29;20044;-93
2023/07/20 01:19:31;;;;;;;30.95;27.95;;;25.40;99.90;;;;;;4882370;29;20092;-92
2023/07/20 01:22:22;;;;;;;30.92;27.88;;;25.40;99.90;;;;;;4883255;29;20044;-91
2023/07/20 01:25:38;;;;;;;31.05;27.55;;;25.30;99.90;;;;;;4881157;29;20505;-94
2023/07/20 01:28:56;;;;;;;31.38;27.50;;;25.20;99.90;;;;;;4857804;29;20075;-93
2023/07/20 01:31:27;;;;;;;;;;;25.20;99.90;;;;;;4882571;29;20478;-92
2023/07/20 01:34:00;;;;;;;30.67;27.52;;;25.10;99.90;;;;;;4897705;29;19911;-92
2023/07/20 01:36:37;;;;;;;31.17;28.05;;;25.00;99.90;;;;;;4882195;29;20036;-91
2023/07/20 01:39:08;;;;;;;31.55;27.73;;;24.90;99.90;;;;;;4882210;29;20045;-93
2023/07/20 01:41:47;;;;;;;35.55;29.48;;;24.90;99.90;;;;;;4882078;29;20151;-93
2023/07/20 01:44:16;;;;;;;30.80;27.42;;;24.90;99.90;;;;;;4882692;29;20056;-92
2023/07/20 01:46:49;;;;;;;31.55;28.15;;;24.90;99.90;;;;;;4937263;28;20034;-92
2023/07/20 01:49:15;;;;;;;30.17;27.25;;;24.90;99.90;;;;;;4957027;28;20047;-93
2023/07/20 01:51:46;;;;;;;32.53;27.13;;;24.90;99.90;;;;;;4943201;28;20117;-92
2023/07/20 01:54:13;;;;;;;35.53;27.80;;;24.80;99.90;;;;;;4958786;28;20069;-92
2023/07/20 01:56:44;;;;;;;33.33;29.73;;;24.80;99.90;;;;;;4958742;28;20038;-93
2023/07/20 01:59:14;;;;;;;39.88;29.23;;;24.70;99.90;;;;;;4955102;28;20039;-91
2023/07/20 02:01:43;;;;;;;31.23;28.23;;;24.70;99.90;;;;;;4939680;28;20035;-93
2023/07/20 02:04:09;;;;;;;33.15;29.77;;;24.60;99.90;;;;;;4948385;28;20034;-93
2023/07/20 02:06:38;;;;;;;35.20;29.23;;;24.40;99.90;;;;;;4958571;28;20045;-92
2023/07/20 02:09:05;;;;;;;31.42;28.33;;;24.50;99.90;;;;;;4958068;28;20067;-92
2023/07/20 02:11:36;;;;;;;30.77;27.67;;;24.40;99.90;;;;;;4959133;28;20117;-93
2023/07/20 02:14:03;;;;;;;30.73;27.73;;;24.40;99.90;;;;;;4958785;28;20079;-92
2023/07/20 02:16:29;;;;;;;31.77;28.60;;;24.50;99.90;;;;;;4954970;29;20493;-93
2023/07/20 02:18:59;;;;;;;31.83;28.17;;;24.50;99.90;;;;;;4955238;29;20039;-93
2023/07/20 02:21:31;;;;;;;31.67;28.48;;;24.40;99.90;;;;;;4939344;28;20031;-91
2023/07/20 02:24:00;;;;;;;35.40;29.00;;;24.40;99.90;;;;;;4955601;28;20054;-93
2023/07/20 02:26:28;;;;;;;31.25;28.15;;;24.40;99.90;;;;;;4944889;28;20123;-91
2023/07/20 02:28:54;;;;;;;32.45;28.58;;;24.40;99.90;;;;;;4958100;28;20480;-94
2023/07/20 02:31:26;;;;;;;32.97;28.52;;;24.40;99.90;;;;;;4942352;28;20125;-92
2023/07/20 02:33:57;;;;;;;31.27;28.08;;;24.40;99.90;;;;;;4954358;28;20386;-94
2023/07/20 02:36:29;;;;;;;30.08;27.25;;;24.50;99.90;;;;;;4970244;28;20506;-92
2023/07/20 02:38:56;;;;;;;30.40;27.08;;;24.50;99.90;;;;;;4974169;28;20187;-92
2023/07/20 02:41:30;;;;;;;29.85;26.80;;;24.50;99.90;;;;;;4943042;28;20509;-94
2023/07/20 02:44:06;;;;;;;29.73;26.60;;;24.60;99.90;;;;;;4959005;28;20035;-92
2023/07/20 02:46:38;;;;;;;30.15;26.77;;;24.60;99.90;;;;;;4958548;28;20386;-94
2023/07/20 02:49:04;;;;;;;28.60;25.92;;;24.70;99.90;;;;;;4958130;28;20046;-94
2023/07/20 02:51:33;;;;;;;29.77;26.10;;;24.70;99.90;;;;;;4939417;29;20481;-93
2023/07/20 02:54:01;;;;;;;29.63;26.35;;;24.70;99.90;;;;;;4948214;28;20050;-91
2023/07/20 02:56:30;;;;;;;28.13;25.30;;;24.70;99.90;;;;;;4942361;28;20035;-92
2023/07/20 02:59:02;;;;;;;28.40;25.55;;;24.70;99.90;;;;;;4957863;28;20039;-93
2023/07/20 03:01:31;;;;;;;29.85;26.08;;;24.80;99.90;;;;;;4957855;28;20070;-92
2023/07/20 03:04:01;;;;;;;28.60;25.52;;;24.80;99.90;;;;;;4958912;28;20035;-92
2023/07/20 03:06:30;;;;;;;29.30;26.25;;;24.80;99.90;;;;;;4954439;29;20039;-93
2023/07/20 03:09:05;;;;;;;27.00;24.58;;;24.90;99.90;;;;;;4955748;28;20043;-92
2023/07/20 03:11:55;;;;;;;27.95;24.65;;;24.80;99.90;;;;;;4960812;28;20102;-93
2023/07/20 03:14:48;;;;;;;27.58;24.67;;;24.70;99.90;;;;;;4960747;28;20039;-94
2023/07/20 03:17:32;;;;;;;27.17;24.55;;;24.60;99.90;;;;;;4926405;29;20058;-93
2023/07/20 03:20:12;;;;;;;31.25;23.45;;;24.60;99.90;;;;;;4942813;29;20039;-93
2023/07/20 03:22:47;;;;;;;26.05;23.35;;;24.60;99.90;;;;;;4952863;28;20042;-93
2023/07/20 03:25:17;;;;;;;29.42;22.95;;;24.50;99.90;;;;;;4960842;28;20073;-93
2023/07/20 03:27:47;;;;;;;27.00;23.10;;;24.50;99.90;;;;;;4961717;28;20039;-92
2023/07/20 03:30:19;;;;;;;25.33;22.88;;;24.50;99.90;;;;;;4957538;29;20134;-93
2023/07/20 03:32:46;;;;;;;24.20;21.77;;;24.50;99.90;;;;;;4941786;29;20040;-93
2023/07/20 03:35:12;;;;;;;24.95;21.88;;;24.40;99.90;;;;;;4942312;29;20393;-94
2023/07/20 03:37:39;;;;;;;24.48;21.98;;;24.50;99.90;;;;;;4957614;29;20077;-93
2023/07/20 03:40:09;;;;;;;23.50;20.95;;;24.60;99.90;;;;;;4946899;28;20125;-95
2023/07/20 03:42:36;;;;;;;25.70;21.75;;;24.60;99.90;;;;;;4961609;28;20519;-92
2023/07/20 03:45:02;;;;;;;26.77;22.27;;;24.50;99.90;;;;;;4957984;29;20106;-94
2023/07/20 03:47:29;;;;;;;25.70;22.08;;;24.50;99.90;;;;;;4976548;28;20031;-91
2023/07/20 03:49:55;;;;;;;25.02;22.38;;;24.50;99.90;;;;;;4960829;28;20043;-92
2023/07/20 03:52:22;;;;;;;26.17;23.52;;;24.50;99.90;;;;;;4961024;28;20053;-93
2023/07/20 03:54:48;;;;;;;28.83;22.70;;;24.50;99.90;;;;;;4957381;29;20039;-92
2023/07/20 04:02:17;;;;;;;24.77;22.33;;;24.70;99.90;;;;;;4977967;28;20082;-92
2023/07/20 04:04:44;;;;;;;24.52;22.00;;;24.80;99.90;;;;;;4979709;28;20073;-92
2023/07/20 04:07:10;;;;;;;25.73;22.90;;;24.90;99.90;;;;;;4983320;28;20046;-92
2023/07/20 04:09:37;;;;;;;24.35;22.08;;;24.80;99.90;;;;;;4979804;28;20089;-91
2023/07/20 04:12:03;;;;;;;25.45;22.88;;;24.80;99.90;;;;;;4960748;28;20038;-92
2023/07/20 04:14:30;;;;;;;28.75;23.17;;;24.80;99.90;;;;;;4959127;28;20039;-90
2023/07/20 04:16:56;;;;;;;25.83;22.42;;;25.00;99.90;;;;;;4963178;28;20046;-91
2023/07/20 04:19:22;;;;;;;25.08;22.60;;;25.10;99.90;;;;;;4975554;28;20527;-91
2023/07/20 04:21:49;;;;;;;26.20;22.58;;;25.20;99.90;;;;;;4965318;28;20043;-91
2023/07/20 04:24:15;;;;;;;25.45;22.95;;;25.30;99.90;;;;;;4967330;28;20031;-91
2023/07/20 04:26:42;;;;;;;25.05;22.50;;;25.40;99.90;;;;;;4972762;28;20100;-94
2023/07/20 04:29:09;;;;;;;26.35;23.17;;;25.60;99.90;;;;;;4963258;28;20049;-92
2023/07/20 04:31:39;;;;;;;24.85;22.33;;;25.80;99.90;;;;;;4960534;28;20039;-92
2023/07/20 04:34:06;;;;;;;25.40;22.88;;;25.90;99.90;;;;;;4960179;28;20070;-93
2023/07/20 04:36:34;;;;;;;29.75;23.88;;;26.10;99.90;;;;;;4963317;28;20027;-95
2023/07/20 04:39:01;;;;;;;25.92;23.15;;;26.20;99.90;;;;;;4963143;28;20442;-94
2023/07/20 04:41:34;;;;;;;25.23;22.77;;;26.30;99.90;;;;;;4944547;28;20042;-93
2023/07/20 04:44:02;;;;;;;26.92;23.88;;;26.40;99.90;;;;;;4943797;28;20043;-92
2023/07/20 04:46:30;;;;;;;26.70;23.95;;;26.60;99.90;;;;;;4946005;28;20038;-92
2023/07/20 04:48:58;;;;;;;26.88;24.02;;;26.80;99.90;;;;;;4979812;28;20510;-93
2023/07/20 04:51:26;;;;;;;27.38;24.65;;;27.40;99.90;;;;;;4978817;28;20038;-92
2023/07/20 04:53:55;;;;;;;28.50;23.88;;;28.10;99.90;;;;;;4975781;28;20049;-93
2023/07/20 04:56:24;;;;;;;26.60;23.98;;;28.90;99.90;;;;;;4959750;28;20035;-94
2023/07/20 04:58:51;;;;;;;26.95;24.30;;;30.10;99.90;;;;;;4958787;28;20408;-92
2023/07/20 05:01:18;;;;;;;30.38;24.23;;;31.40;99.90;;;;;;4959346;28;20511;-93
2023/07/20 05:03:44;;;;;;;30.25;25.20;;;31.80;99.90;;;;;;4960296;28;20373;-92
2023/07/20 05:06:10;;;;;;;27.67;24.25;;;32.20;99.90;;;;;;4962606;28;20507;-92
2023/07/20 05:08:37;;;;;;;28.02;25.30;;;32.70;99.90;;;;;;4962463;28;20039;-93
2023/07/20 05:11:04;;;;;;;26.98;24.83;;;33.00;99.90;;;;;;4969831;28;20496;-91
2023/07/20 05:13:30;;;;;;;31.23;26.25;;;33.30;99.90;;;;;;4962600;28;20030;-93
2023/07/20 05:15:57;;;;;;;27.88;25.38;;;33.70;99.90;;;;;;4962317;28;20039;-92
2023/07/20 05:18:23;;;;;;;27.92;25.52;;;34.00;99.90;;;;;;4962030;28;20034;-93
2023/07/20 05:20:51;;;;;;;30.05;25.13;;;34.20;99.90;;;;;;4962793;28;20109;-94
2023/07/20 05:23:19;;;;;;;29.13;26.08;;;34.40;99.90;;;;;;4962287;28;20049;-93
2023/07/20 05:25:46;;;;;;;30.05;26.58;;;34.50;99.90;;;;;;4959053;28;20042;-91
2023/07/20 05:28:13;;;;;;;29.48;26.50;;;35.30;99.90;;;;;;4942940;28;20030;-93
2023/07/20 05:31:52;;;;;;;;;;;;;;;;;;;;;
2023/07/20 05:34:29;;;;;;;28.83;25.90;;;37.30;99.90;;;;;;4918260;29;20036;-92
2023/07/20 07:28:09;;;;;;;28.95;26.63;;;41.10;99.90;;;;;;5179259;23;20241;-88
2023/07/20 07:30:35;;;;;;;27.77;25.40;;;40.70;99.90;;;;;;4941292;29;20140;-88
2023/07/20 07:33:02;;;;;;;28.80;26.00;;;41.10;99.90;;;;;;4926426;29;20134;-71
2023/07/20 07:35:28;;;;;;;27.80;25.05;;;40.80;99.90;;;;;;4940414;29;20047;-71
2023/07/20 07:37:54;;;;;;;27.52;25.05;;;41.50;99.00;;;;;;4945925;29;20038;-72
2023/07/20 07:40:21;;;;;;;27.02;24.98;;;41.70;99.10;;;;;;4948552;29;20389;-72
2023/07/20 07:42:47;;;;;;;28.33;25.63;;;41.50;99.30;;;;;;4948130;29;20131;-71
2023/07/20 07:45:16;;;;;;;31.30;25.63;;;41.20;99.20;;;;;;4946427;29;20058;-70
2023/07/20 07:47:43;;;;;;;26.73;24.60;;;41.50;99.10;;;;;;4927171;29;20102;-70
2023/07/20 07:50:12;;;;;;;27.52;25.27;;;42.20;97.10;;;;;;4946940;29;20516;-72
2023/07/20 07:52:40;;;;;;;27.58;25.20;;;42.20;96.80;;;;;;4947445;29;20035;-71
2023/07/20 07:55:06;;;;;;;27.05;24.75;;;41.80;97.10;;;;;;4948927;29;20503;-71
2023/07/20 07:57:32;;;;;;;27.67;25.42;;;41.90;96.90;;;;;;4945737;28;20038;-71
2023/07/20 07:59:59;;;;;;;28.67;26.17;;;42.40;96.70;;;;;;4947075;29;20495;-71
2023/07/20 08:02:26;;;;;;;30.88;26.80;;;42.50;95.90;;;;;;4946649;29;20031;-71
2023/07/20 08:04:52;;;;;;;28.83;26.52;;;42.30;95.00;;;;;;4940010;29;20038;-71
2023/07/20 08:07:18;;;;;;;27.58;25.23;;;42.50;94.60;;;;;;4929258;29;20040;-72
2023/07/20 08:09:44;;;;;;;28.42;25.75;;;42.10;94.70;;;;;;4945924;29;20485;-71
2023/07/20 08:12:10;;;;;;;29.40;26.05;;;42.20;94.50;;;;;;4945992;29;20054;-71
2023/07/20 08:14:36;;;;;;;28.02;25.73;;;42.30;94.50;;;;;;4948510;29;20050;-71
2023/07/20 08:17:03;;;;;;;28.45;25.75;;;42.60;92.90;;;;;;4947392;29;20035;-71
2023/07/20 08:19:29;;;;;;;30.38;27.05;;;42.40;92.30;;;;;;4946986;29;20373;-71
2023/07/20 08:21:55;;;;;;;35.67;25.95;;;42.40;92.10;;;;;;4945804;29;20028;-71
2023/07/20 08:24:22;;;;;;;28.42;25.25;;;42.00;91.40;;;;;;4947787;29;20039;-71
2023/07/20 08:26:48;;;;;;;30.38;26.40;;;42.20;91.80;;;;;;4947475;29;20106;-71
2023/07/20 08:29:14;;;;;;;28.90;25.95;;;42.70;91.80;;;;;;4946454;28;20054;-71
2023/07/20 08:31:40;;;;;;;27.60;24.98;;;42.10;90.50;;;;;;4945984;29;20554;-71
2023/07/20 08:34:07;;;;;;;27.15;24.45;;;41.80;84.50;;;;;;4947158;29;20404;-71
2023/07/20 08:36:33;;;;;;;28.50;25.75;;;42.10;85.50;;;;;;4931051;29;20388;-71
2023/07/20 08:38:59;;;;;;;27.65;25.23;;;41.70;85.90;;;;;;4948088;29;20035;-70
2023/07/20 08:41:25;;;;;;;33.97;25.58;;;41.80;85.50;;;;;;4946488;29;20035;-70
2023/07/20 08:43:57;;;;;;;31.80;24.55;;;42.10;84.50;;;;;;4945845;29;20103;-70
2023/07/20 08:46:25;;;;;;;31.67;25.83;;;41.90;83.20;;;;;;4948540;29;20087;-70
2023/07/20 08:48:53;;;;;;;28.83;26.02;;;41.50;83.80;;;;;;4942844;29;20042;-71
2023/07/20 08:51:25;;;;;;;28.65;25.63;;;41.60;83.50;;;;;;4946130;29;20039;-72
